»·PEaware :: N8401T KAVX-KSAN

N8401T :: KAVX-KSAN

FLIGHT INFORMATION

Flight Status: Arrived
Operator: Privately registered:
United States
More flights under this callsign
Pilot: David R. (8138)
Aircraft: PIPER PA-28 CHEROKEE ARCHER
(PA28)
More flights by this aircraft type
Origin: KAVX Catalina
United States
Destination: KSAN San Diego Intl-Lindbergh
United States
More flights between these airports :: More routes between these airports
Route: +SXC V208 OCN V23 MZB
File this flight plan on PilotEdge
Remarks: I-8 Rating - TEC ROUTE CSTP56
Altitude:
(Current/Filed)
5,000ft
Speed:
(Current/Filed)
120kts
Departed: 04-Oct-18 07:09 PM
Arrived: 04-Oct-18 08:09 PM
Distance/Time
Traveled:
73nm/1:00
Distance/Time
To Go:
Arrived

Flight Plot

Page will automatically refresh every two minutes.


Map Options




Map Legend


Flown Route
Filed Route
Departure Airport
Arrival Airport
Navaid (VOR, NDB)
Fix

Horizontal Profiles

Position Reports

Time Latitude Longitude Heading Altitude Ground
Speed
04-Oct-18 19:01 33.407191 -118.411356 48 1605ft 0kts
04-Oct-18 19:02 33.407191 -118.411356 48 1605ft 0kts
04-Oct-18 19:03 33.407191 -118.411356 48 1605ft 0kts
04-Oct-18 19:04 33.407256 -118.411270 47 1605ft 0kts
04-Oct-18 19:05 33.407256 -118.411270 47 1605ft 0kts
04-Oct-18 19:06 33.407256 -118.411270 47 1605ft 0kts
04-Oct-18 19:07 33.407256 -118.411270 47 1605ft 0kts
04-Oct-18 19:08 33.407261 -118.411262 45 1605ft 0kts
04-Oct-18 19:09 33.407262 -118.411262 45 1605ft 0kts
04-Oct-18 19:10 33.407262 -118.411262 44 1605ft 0kts
04-Oct-18 19:11 33.405966 -118.414041 237 1605ft 68kts
04-Oct-18 19:12 33.393812 -118.437223 201 2747ft 91kts
04-Oct-18 19:13 33.378094 -118.416461 87 3807ft 102kts
04-Oct-18 19:14 33.372357 -118.376460 103 3888ft 145kts
04-Oct-18 19:15 33.364614 -118.336164 97 4705ft 115kts
04-Oct-18 19:16 33.359685 -118.296837 100 5055ft 135kts
04-Oct-18 19:17 33.352324 -118.251633 100 5008ft 138kts
04-Oct-18 19:18 33.345110 -118.206564 100 4982ft 137kts
04-Oct-18 19:19 33.339690 -118.161384 96 4969ft 137kts
04-Oct-18 19:20 33.335538 -118.118351 96 4961ft 137kts
04-Oct-18 19:21 33.330310 -118.073116 98 4949ft 137kts
04-Oct-18 19:22 33.324770 -118.027949 97 4968ft 136kts
04-Oct-18 19:23 33.318704 -117.982794 98 4948ft 137kts
04-Oct-18 19:24 33.312654 -117.937634 98 4944ft 137kts
04-Oct-18 19:25 33.306495 -117.892778 99 4953ft 137kts
04-Oct-18 19:26 33.299737 -117.847764 99 4964ft 137kts
04-Oct-18 19:27 33.293251 -117.802582 99 5020ft 138kts
04-Oct-18 19:28 33.286768 -117.756844 99 5016ft 140kts
04-Oct-18 19:29 33.280638 -117.710787 99 5005ft 140kts
04-Oct-18 19:30 33.273360 -117.664884 100 4993ft 140kts
04-Oct-18 19:31 33.267518 -117.618686 95 4980ft 140kts
04-Oct-18 19:32 33.261819 -117.573374 107 4939ft 141kts
04-Oct-18 19:33 33.249981 -117.529309 112 4918ft 141kts
04-Oct-18 19:34 33.247831 -117.519861 102 4933ft 140kts
04-Oct-18 19:35 33.242540 -117.495932 106 4923ft 141kts
04-Oct-18 19:36 33.241639 -117.449563 81 4901ft 141kts
04-Oct-18 19:37 33.230723 -117.413215 168 4974ft 137kts
04-Oct-18 19:38 33.193520 -117.399702 155 4940ft 140kts
04-Oct-18 19:39 33.158279 -117.380380 148 4948ft 140kts
04-Oct-18 19:40 33.122011 -117.364012 162 4968ft 139kts
04-Oct-18 19:41 33.084705 -117.351013 156 4926ft 141kts
04-Oct-18 19:42 33.049133 -117.334236 158 4979ft 139kts
04-Oct-18 19:43 33.012293 -117.319704 161 5007ft 139kts
04-Oct-18 19:44 32.975295 -117.304635 165 5009ft 139kts
04-Oct-18 19:45 32.938915 -117.288436 162 4991ft 140kts
04-Oct-18 19:46 32.902035 -117.274007 160 5003ft 140kts
04-Oct-18 19:47 32.865787 -117.258639 159 5009ft 141kts
04-Oct-18 19:48 32.832429 -117.237129 115 4960ft 143kts
04-Oct-18 19:49 32.826463 -117.191367 102 5003ft 139kts
04-Oct-18 19:50 32.819587 -117.145738 102 4976ft 140kts
04-Oct-18 19:51 32.814869 -117.099839 101 4979ft 141kts
04-Oct-18 19:52 32.804600 -117.055254 99 4993ft 139kts
04-Oct-18 19:53 32.796801 -117.009771 101 4991ft 140kts
04-Oct-18 19:54 32.790073 -116.964321 100 5003ft 140kts
04-Oct-18 19:55 32.783540 -116.918600 98 5019ft 140kts
04-Oct-18 19:56 32.776424 -116.872877 99 4993ft 141kts
04-Oct-18 19:57 32.760933 -116.835116 177 4139ft 151kts
04-Oct-18 19:58 32.723105 -116.844086 189 3801ft 137kts
04-Oct-18 19:59 32.685783 -116.852885 212 3817ft 139kts
04-Oct-18 20:00 32.671593 -116.893991 256 3786ft 129kts
04-Oct-18 20:01 32.669890 -116.926853 279 3695ft 103kts
04-Oct-18 20:02 32.676730 -116.958308 290 3592ft 93kts
04-Oct-18 20:03 32.683497 -116.987242 287 3285ft 84kts
04-Oct-18 20:04 32.691374 -117.015860 288 2746ft 94kts
04-Oct-18 20:05 32.699151 -117.044643 284 2573ft 87kts
04-Oct-18 20:06 32.705670 -117.072382 283 2042ft 94kts
04-Oct-18 20:07 32.712366 -117.101114 283 1783ft 90kts
04-Oct-18 20:08 32.718929 -117.128820 284 822ft 85kts
04-Oct-18 20:09 32.725523 -117.156440 286 557ft 82kts
04-Oct-18 20:10 32.732133 -117.183773 290 32ft 83kts
04-Oct-18 20:11 32.734080 -117.195425 256 20ft 0kts
04-Oct-18 20:12 32.734080 -117.195426 257 20ft 0kts
04-Oct-18 20:13 32.733316 -117.195663 190 20ft 0kts

Navigation Log

Ident Type
1. KAVX Airport
2. SXC Navaid
3. AVOLS Fix
4. PACIF Fix
5. HUBRD Fix
6. OCN Navaid
7. HURSI Fix
8. CARIF Fix
9. MZB Navaid
10. KSAN Airport